createdAt,value
2019-01-04T00:01:43.780Z,28.40
2019-01-04T00:04:50.765Z,30.23
2019-01-04T00:07:57.667Z,28.13
2019-01-04T00:11:04.594Z,31.20
2019-01-04T00:14:11.591Z,33.30
2019-01-04T00:17:18.582Z,33.97
2019-01-04T00:20:25.482Z,39.17
2019-01-04T00:23:32.537Z,31.40
2019-01-04T00:26:39.662Z,24.72
2019-01-04T00:29:46.379Z,32.60
2019-01-04T00:32:53.033Z,31.90
2019-01-04T00:36:00.069Z,28.50
2019-01-04T00:39:07.895Z,30.57
2019-01-04T00:42:14.847Z,28.27
2019-01-04T00:45:21.815Z,28.80
2019-01-04T00:48:29.254Z,31.70
2019-01-04T00:51:38.736Z,26.23
2019-01-04T00:54:45.650Z,29.27
2019-01-04T00:58:49.507Z,26.60
2019-01-04T01:02:36.521Z,25.33
2019-01-04T01:06:50.275Z,26.95
2019-01-04T01:10:36.397Z,26.83
2019-01-04T01:14:45.229Z,23.70
2019-01-04T01:18:43.595Z,25.53
2019-01-04T01:22:48.909Z,25.08
2019-01-04T01:26:41.833Z,28.33
2019-01-04T01:31:00.687Z,28.20
2019-01-04T01:35:05.691Z,25.90
2019-01-04T01:39:19.341Z,25.70
2019-01-04T01:43:40.580Z,27.22
2019-01-04T01:47:34.489Z,25.90
2019-01-04T01:51:27.184Z,26.90
2019-01-04T01:54:34.004Z,27.83
2019-01-04T01:57:41.139Z,28.83
2019-01-04T02:00:49.762Z,32.33
2019-01-04T02:03:56.773Z,27.65
2019-01-04T02:07:03.627Z,31.97
2019-01-04T02:10:11.033Z,31.20
2019-01-04T02:13:17.721Z,32.93
2019-01-04T02:16:24.707Z,31.57
2019-01-04T02:19:31.580Z,29.73
2019-01-04T02:22:38.755Z,32.03
2019-01-04T02:25:45.706Z,28.20
2019-01-04T02:28:53.057Z,28.17
2019-01-04T02:31:59.744Z,33.87
2019-01-04T02:35:06.987Z,28.40
2019-01-04T02:38:14.048Z,30.47
2019-01-04T02:41:22.099Z,27.83
2019-01-04T02:44:29.065Z,31.48
2019-01-04T02:47:36.354Z,30.50
2019-01-04T02:50:44.802Z,38.30
2019-01-04T02:53:51.972Z,30.53
2019-01-04T02:56:58.997Z,30.68
2019-01-04T03:00:06.690Z,32.50
2019-01-04T03:03:13.648Z,27.77
2019-01-04T03:06:20.595Z,31.53
2019-01-04T03:09:28.170Z,32.80
2019-01-04T03:12:35.111Z,40.00
2019-01-04T03:15:42.035Z,42.83
2019-01-04T03:18:50.682Z,41.37
2019-01-04T03:21:57.893Z,29.55
2019-01-04T03:25:04.610Z,37.33
2019-01-04T03:28:11.325Z,33.07
2019-01-04T03:31:18.353Z,33.10
2019-01-04T03:34:25.306Z,33.03
2019-01-04T03:37:32.334Z,39.47
2019-01-04T03:40:39.343Z,41.20
2019-01-04T03:43:46.512Z,44.37
2019-01-04T03:46:53.725Z,46.37
2019-01-04T03:50:00.810Z,44.00
2019-01-04T03:53:07.704Z,35.60
2019-01-04T03:56:14.932Z,35.17
2019-01-04T03:59:21.652Z,43.07
2019-01-04T04:02:28.378Z,38.13
2019-01-04T04:05:35.101Z,36.67
2019-01-04T04:08:41.847Z,38.83
2019-01-04T04:11:50.352Z,44.53
2019-01-04T04:14:57.419Z,35.40
2019-01-04T04:18:04.324Z,38.13
2019-01-04T04:21:11.273Z,42.33
2019-01-04T04:24:18.499Z,47.62
2019-01-04T04:27:25.213Z,41.57
2019-01-04T04:30:31.922Z,42.90
2019-01-04T04:33:38.893Z,38.20
2019-01-04T04:36:47.777Z,39.07
2019-01-04T04:39:54.772Z,39.03
2019-01-04T04:43:00.927Z,41.57
2019-01-04T04:46:07.538Z,40.93
2019-01-04T04:49:13.896Z,41.67
2019-01-04T04:52:20.230Z,43.00
2019-01-04T04:55:26.332Z,40.50
2019-01-04T04:58:32.728Z,33.10
2019-01-04T05:01:38.802Z,34.27
2019-01-04T05:04:45.174Z,37.93
2019-01-04T05:07:51.289Z,35.20
2019-01-04T05:10:57.629Z,43.93
2019-01-04T05:14:03.705Z,41.53
2019-01-04T05:17:11.065Z,42.00
2019-01-04T05:20:17.162Z,38.30
2019-01-04T05:23:23.547Z,41.60
2019-01-04T05:26:30.200Z,39.63
2019-01-04T05:29:37.103Z,39.67
2019-01-04T05:32:46.442Z,41.07
2019-01-04T05:35:54.298Z,30.92
2019-01-04T05:39:01.270Z,35.83
2019-01-04T05:42:09.534Z,34.43
2019-01-04T05:45:16.520Z,33.95
2019-01-04T05:48:23.837Z,31.52
2019-01-04T05:51:31.065Z,32.00
2019-01-04T05:54:38.649Z,32.53
2019-01-04T05:57:45.653Z,32.80
2019-01-04T06:00:52.415Z,31.43
2019-01-04T06:03:59.335Z,28.33
2019-01-04T06:07:06.254Z,28.73
2019-01-04T06:10:13.106Z,29.83
2019-01-04T06:13:19.818Z,29.27
2019-01-04T06:16:26.532Z,33.50
2019-01-04T06:19:33.747Z,30.43
2019-01-04T06:22:41.513Z,28.13
2019-01-04T06:25:48.272Z,29.70
2019-01-04T06:28:54.935Z,27.33
2019-01-04T06:32:01.688Z,24.87
2019-01-04T06:35:08.370Z,27.00
2019-01-04T06:38:15.333Z,29.77
2019-01-04T06:41:22.181Z,27.33
2019-01-04T06:44:29.083Z,27.57
2019-01-04T06:47:37.387Z,27.65
2019-01-04T06:50:45.067Z,25.97
2019-01-04T06:53:53.034Z,25.37
2019-01-04T06:57:00.054Z,26.90
2019-01-04T07:00:07.026Z,24.55
2019-01-04T07:03:16.054Z,31.00
2019-01-04T07:06:25.719Z,23.17
2019-01-04T07:09:32.613Z,25.90
2019-01-04T07:12:39.485Z,24.90
2019-01-04T07:15:46.400Z,24.33
2019-01-04T07:18:53.401Z,23.42
2019-01-04T07:22:00.388Z,24.63
2019-01-04T07:25:07.393Z,24.43
2019-01-04T07:28:14.298Z,24.40
2019-01-04T07:31:20.981Z,24.07
2019-01-04T07:34:28.189Z,22.98
2019-01-04T07:37:35.051Z,21.40
2019-01-04T07:40:42.120Z,21.67
2019-01-04T07:43:49.340Z,20.75
2019-01-04T07:46:56.446Z,21.63
2019-01-04T07:50:04.492Z,23.87
2019-01-04T07:53:11.829Z,24.10
2019-01-04T07:56:19.081Z,22.93
2019-01-04T07:59:26.097Z,24.12
2019-01-04T08:02:47.289Z,23.70
2019-01-04T08:05:58.168Z,20.80
2019-01-04T08:09:07.207Z,24.55
2019-01-04T08:12:13.942Z,29.50
2019-01-04T08:15:20.732Z,23.33
2019-01-04T08:18:27.702Z,26.37
2019-01-04T08:21:34.523Z,23.10
2019-01-04T08:24:41.764Z,25.00
2019-01-04T08:27:48.457Z,23.47
2019-01-04T08:30:55.208Z,23.77
2019-01-04T08:34:04.629Z,21.77
2019-01-04T08:37:11.642Z,23.40
2019-01-04T08:40:19.955Z,23.23
2019-01-04T08:43:28.459Z,25.07
2019-01-04T08:46:35.277Z,22.27
2019-01-04T08:49:42.512Z,23.70
2019-01-04T08:52:49.225Z,24.63
2019-01-04T08:55:56.256Z,29.83
2019-01-04T08:59:03.107Z,25.00
2019-01-04T09:02:11.925Z,24.80
2019-01-04T09:05:19.438Z,25.23
2019-01-04T09:08:26.312Z,27.00
2019-01-04T09:11:33.193Z,23.60
2019-01-04T09:14:40.319Z,38.63
2019-01-04T09:17:47.042Z,49.90
2019-01-04T09:20:53.761Z,43.90
2019-01-04T09:24:01.191Z,24.97
2019-01-04T09:27:08.183Z,23.40
2019-01-04T09:30:16.430Z,22.70
2019-01-04T09:33:23.879Z,25.00
2019-01-04T09:36:30.676Z,26.80
2019-01-04T09:39:37.697Z,22.40
2019-01-04T09:42:49.192Z,23.40
2019-01-04T09:45:56.403Z,20.47
2019-01-04T09:49:03.332Z,27.25
2019-01-04T09:52:10.057Z,21.20
2019-01-04T09:55:16.727Z,22.77
2019-01-04T09:58:24.764Z,20.43
2019-01-04T10:01:31.804Z,22.13
2019-01-04T10:04:38.494Z,22.17
2019-01-04T10:07:45.634Z,25.43
2019-01-04T10:10:52.653Z,25.55
2019-01-04T10:13:59.445Z,23.90
2019-01-04T10:17:06.412Z,32.13
2019-01-04T10:20:13.782Z,22.93
2019-01-04T10:23:20.679Z,25.67
2019-01-04T10:26:27.550Z,23.63
2019-01-04T10:29:34.735Z,22.27
2019-01-04T10:32:42.157Z,24.27
2019-01-04T10:35:48.853Z,22.50
2019-01-04T10:38:55.998Z,22.35
2019-01-04T10:42:05.874Z,20.68
2019-01-04T10:45:12.775Z,22.23
2019-01-04T10:48:19.804Z,20.13
2019-01-04T10:51:26.493Z,22.97
2019-01-04T10:54:35.430Z,20.10
2019-01-04T10:57:42.821Z,21.87
2019-01-04T11:00:50.144Z,23.53
2019-01-04T11:03:56.818Z,22.23
2019-01-04T11:07:03.640Z,20.90
2019-01-04T11:10:11.741Z,23.30
2019-01-04T11:13:18.654Z,25.80
2019-01-04T11:16:26.116Z,24.80
2019-01-04T11:19:33.048Z,23.33
2019-01-04T11:23:01.661Z,22.63
2019-01-04T11:26:37.682Z,21.77
2019-01-04T11:30:24.902Z,20.30
2019-01-04T11:34:26.926Z,20.85
2019-01-04T11:37:59.398Z,22.63
2019-01-04T11:41:35.906Z,23.47
2019-01-04T11:45:21.369Z,26.13
2019-01-04T11:49:09.954Z,28.93
2019-01-04T11:52:31.288Z,24.47
2019-01-04T11:55:39.141Z,24.90
2019-01-04T11:58:45.853Z,25.97
2019-01-04T12:01:53.865Z,21.03
2019-01-04T12:05:03.582Z,22.70
2019-01-04T12:08:10.497Z,25.57
2019-01-04T12:11:17.416Z,24.67
2019-01-04T12:14:25.739Z,25.92
2019-01-04T12:17:32.583Z,23.33
2019-01-04T12:20:45.361Z,29.20
2019-01-04T12:23:49.087Z,23.77
2019-01-04T12:26:56.010Z,21.10
2019-01-04T12:30:02.673Z,23.73
2019-01-04T12:33:10.464Z,22.80
2019-01-04T12:36:17.763Z,23.27
2019-01-04T12:39:24.679Z,24.00
2019-01-04T12:42:31.652Z,24.43
2019-01-04T12:45:39.175Z,21.42
2019-01-04T12:48:46.062Z,21.30
2019-01-04T12:51:53.434Z,20.60
2019-01-04T12:55:00.169Z,23.13
2019-01-04T12:58:07.118Z,20.40
2019-01-04T13:01:14.028Z,20.70
2019-01-04T13:04:22.160Z,25.02
2019-01-04T13:07:29.279Z,31.20
2019-01-04T13:10:36.191Z,22.63
2019-01-04T13:13:43.076Z,21.43
2019-01-04T13:16:50.291Z,20.48
2019-01-04T13:19:56.980Z,21.07
2019-01-04T13:23:03.743Z,21.07
2019-01-04T13:26:10.433Z,24.63
2019-01-04T13:29:17.394Z,32.23
2019-01-04T13:32:24.293Z,21.37
2019-01-04T13:35:31.235Z,20.73
2019-01-04T13:38:38.822Z,21.60
2019-01-04T13:41:45.740Z,18.33
2019-01-04T13:44:52.925Z,21.80
2019-01-04T13:47:59.891Z,19.10
2019-01-04T13:51:06.772Z,18.70
2019-01-04T13:54:13.793Z,20.33
2019-01-04T13:57:20.953Z,20.35
2019-01-04T14:00:27.755Z,20.03
2019-01-04T14:03:34.667Z,20.23
2019-01-04T14:06:41.949Z,20.90
2019-01-04T14:09:48.927Z,19.55
2019-01-04T14:12:55.670Z,19.90
2019-01-04T14:16:02.616Z,20.77
2019-01-04T14:19:09.604Z,20.40
2019-01-04T14:22:16.974Z,19.27
2019-01-04T14:25:24.062Z,20.57
2019-01-04T14:28:30.973Z,20.67
2019-01-04T14:31:37.955Z,20.00
2019-01-04T14:34:44.974Z,20.30
2019-01-04T14:37:51.754Z,20.60
2019-01-04T14:40:58.793Z,18.50
2019-01-04T14:44:05.732Z,20.73
2019-01-04T14:47:12.921Z,19.15
2019-01-04T14:50:19.924Z,19.80
2019-01-04T14:53:26.842Z,20.90
2019-01-04T14:56:35.832Z,19.20
2019-01-04T14:59:42.879Z,23.65
2019-01-04T15:02:50.196Z,18.77
2019-01-04T15:05:57.476Z,18.25
2019-01-04T15:09:05.918Z,18.90
2019-01-04T15:12:12.889Z,21.68
2019-01-04T15:15:19.632Z,19.80
2019-01-04T15:18:26.360Z,23.43
2019-01-04T15:21:33.106Z,18.20
2019-01-04T15:24:39.795Z,19.13
2019-01-04T15:27:47.143Z,20.60
2019-01-04T15:30:54.335Z,17.80
2019-01-04T15:34:01.076Z,19.73
2019-01-04T15:37:07.784Z,18.87
2019-01-04T15:40:14.769Z,18.70
2019-01-04T15:43:21.684Z,19.43
2019-01-04T15:46:31.318Z,19.63
2019-01-04T15:49:39.290Z,19.60
2019-01-04T15:52:46.517Z,19.60
2019-01-04T15:55:53.246Z,18.13
2019-01-04T15:59:00.008Z,19.00
2019-01-04T16:02:09.130Z,19.33
2019-01-04T16:05:16.064Z,18.77
2019-01-04T16:08:23.174Z,19.90
2019-01-04T16:11:30.616Z,20.80
2019-01-04T16:14:37.618Z,20.90
2019-01-04T16:17:46.096Z,22.00
2019-01-04T16:20:53.426Z,19.50
2019-01-04T16:24:00.353Z,20.07
2019-01-04T16:27:07.509Z,19.40
2019-01-04T16:30:14.497Z,18.62
2019-01-04T16:33:21.155Z,20.80
2019-01-04T16:36:28.144Z,19.23
2019-01-04T16:39:35.048Z,19.07
2019-01-04T16:42:42.005Z,18.67
2019-01-04T16:45:48.739Z,19.00
2019-01-04T16:48:58.389Z,19.27
2019-01-04T16:52:05.263Z,23.47
2019-01-04T16:55:12.454Z,20.30
2019-01-04T16:58:19.174Z,17.77
2019-01-04T17:01:25.883Z,20.10
2019-01-04T17:04:32.578Z,19.03
2019-01-04T17:07:45.342Z,21.23
2019-01-04T17:10:52.042Z,20.17
2019-01-04T17:14:02.161Z,20.17
2019-01-04T17:17:09.056Z,19.73
2019-01-04T17:20:16.281Z,18.67
2019-01-04T17:23:22.985Z,18.60
2019-01-04T17:26:30.117Z,19.23
2019-01-04T17:29:36.996Z,21.27
2019-01-04T17:32:44.214Z,19.07
2019-01-04T17:35:51.178Z,19.47
2019-01-04T17:38:58.368Z,20.63
2019-01-04T17:42:05.209Z,19.13
2019-01-04T17:45:12.237Z,20.27
2019-01-04T17:48:20.401Z,19.57
2019-01-04T17:51:27.308Z,22.30
2019-01-04T17:54:34.078Z,19.70
2019-01-04T17:57:40.801Z,18.47
2019-01-04T18:00:47.514Z,19.00
2019-01-04T18:04:01.003Z,20.82
2019-01-04T18:07:09.036Z,21.70
2019-01-04T18:10:16.106Z,23.05
2019-01-04T18:13:23.089Z,21.37
2019-01-04T18:16:30.912Z,19.30
2019-01-04T18:19:37.838Z,21.57
2019-01-04T18:22:44.782Z,23.37
2019-01-04T18:25:51.454Z,21.50
2019-01-04T18:28:58.984Z,25.27
2019-01-04T18:32:07.101Z,23.00
2019-01-04T18:35:14.113Z,22.10
2019-01-04T18:38:21.063Z,23.30
2019-01-04T18:41:28.199Z,22.70
2019-01-04T18:44:35.329Z,23.35
2019-01-04T18:47:42.359Z,26.70
2019-01-04T18:50:50.881Z,24.50
2019-01-04T18:53:57.802Z,28.80
2019-01-04T18:57:05.181Z,20.60
2019-01-04T19:00:13.417Z,18.57
2019-01-04T19:03:20.320Z,21.33
2019-01-04T19:06:31.100Z,19.15
2019-01-04T19:09:36.298Z,20.55
2019-01-04T19:12:43.062Z,20.97
2019-01-04T19:15:49.772Z,19.90
2019-01-04T19:18:58.304Z,21.03
2019-01-04T19:22:05.267Z,23.70
2019-01-04T19:25:11.990Z,33.00
2019-01-04T19:28:20.583Z,36.57
2019-01-04T19:31:27.304Z,35.60
2019-01-04T19:34:34.251Z,45.47
2019-01-04T19:37:41.183Z,22.20
2019-01-04T19:40:48.062Z,21.33
2019-01-04T19:43:54.973Z,19.90
2019-01-04T19:47:03.217Z,20.75
2019-01-04T19:50:24.561Z,19.83
2019-01-04T19:53:33.543Z,22.60
2019-01-04T19:56:40.655Z,22.33
2019-01-04T19:59:47.810Z,20.82
2019-01-04T20:02:54.535Z,21.37
2019-01-04T20:07:19.203Z,20.40
2019-01-04T20:11:41.521Z,20.07
2019-01-04T20:15:30.355Z,20.95
2019-01-04T20:19:01.703Z,25.30
2019-01-04T20:22:26.501Z,22.20
2019-01-04T20:26:04.832Z,23.15
2019-01-04T20:29:30.587Z,24.50
2019-01-04T20:32:49.502Z,20.62
2019-01-04T20:36:13.907Z,22.93
2019-01-04T20:39:45.740Z,20.68
2019-01-04T20:43:13.247Z,21.80
2019-01-04T20:46:39.156Z,22.65
2019-01-04T20:50:03.842Z,21.80
2019-01-04T20:53:46.173Z,22.13
2019-01-04T20:57:13.342Z,22.17
2019-01-04T21:00:37.952Z,23.60
2019-01-04T21:04:19.092Z,22.37
2019-01-04T21:07:43.756Z,23.07
2019-01-04T21:11:12.587Z,21.60
2019-01-04T21:14:41.429Z,24.97
2019-01-04T21:18:12.487Z,22.73
2019-01-04T21:21:37.480Z,26.63
2019-01-04T21:25:09.515Z,22.15
2019-01-04T21:28:48.493Z,22.30
2019-01-04T21:32:12.929Z,21.73
2019-01-04T21:35:56.832Z,22.70
2019-01-04T21:39:28.543Z,19.92
2019-01-04T21:42:57.240Z,21.73
2019-01-04T21:46:32.222Z,21.33
2019-01-04T21:49:53.710Z,20.10
2019-01-04T21:53:22.291Z,20.77
2019-01-04T21:56:53.954Z,21.07
2019-01-04T22:00:17.655Z,20.80
2019-01-04T22:03:52.750Z,23.45
2019-01-04T22:07:17.482Z,23.00
2019-01-04T22:10:49.565Z,19.73
2019-01-04T22:14:14.241Z,21.35
2019-01-04T22:17:58.527Z,19.95
2019-01-04T22:21:31.744Z,21.20
2019-01-04T22:25:13.814Z,20.37
2019-01-04T22:28:40.063Z,23.07
2019-01-04T22:32:18.112Z,19.63
2019-01-04T22:35:42.396Z,20.17
2019-01-04T22:39:17.177Z,20.37
2019-01-04T22:42:41.998Z,21.17
2019-01-04T22:46:07.876Z,21.63
2019-01-04T22:49:32.504Z,19.30
2019-01-04T22:52:56.926Z,17.97
2019-01-04T22:56:21.593Z,18.97
2019-01-04T23:00:00.157Z,18.33
2019-01-04T23:03:24.648Z,18.70
2019-01-04T23:06:49.149Z,19.23
2019-01-04T23:10:30.130Z,18.60
2019-01-04T23:13:52.213Z,20.30
2019-01-04T23:17:30.182Z,20.95
2019-01-04T23:20:56.203Z,19.47
2019-01-04T23:24:30.585Z,20.10
2019-01-04T23:28:05.736Z,19.47
2019-01-04T23:31:51.182Z,19.10
2019-01-04T23:35:15.874Z,18.50
2019-01-04T23:38:30.444Z,19.53
2019-01-04T23:41:55.221Z,18.40
2019-01-04T23:45:29.288Z,19.40
2019-01-04T23:48:54.278Z,18.43
2019-01-04T23:52:19.126Z,18.65
2019-01-04T23:55:37.474Z,17.90
2019-01-04T23:59:04.588Z,18.30
